TNCCTIST

Guest
Details From TNCC - Curacao Hato
To TIST - St Thomas - Cyril E King
Flight Number -
Tags Generated
Created
Modified
Stats Distance 435 nm / 806 km
Max Altitude 0 ft / 0 m
Waypoints 3
Social Downloads 1
Likes 0
Share VATSIM

Download

Looking for another format? Having issues loading an existing format? Contact us
Advertisement - Login to hide

Notes

Generated

Route

TNCC R1307 TIST

ID Type Via Altitude Latitude Longitude Leg Dist Tot Dist Heading (true) Name
O TNCC APT - 0 ft / 0 m 12.19211˚ -68.97514˚ - 0 nm - -
R1307 FIX - 0 ft / 0 m 18.33687˚ -64.98343˚ 435 nm 435 nm 32° / 33° -
O TIST APT - 0 ft / 0 m 18.33687˚ -64.98343˚ 0 nm 435 nm 0° / 180° -

Altitude Profile

Advertisement - Login to hide

Weather


0- 5 10 15 20 25 30 35+ Temperature / ° C

Clouds and Precipitation
Forecast for 2017-12-13 18:00 UTC. Updated 2 hours ago

Ground ~20,000 ft ~40,000 ft Winds

TNCC

Details ICAO TNCC (CUR)
Name Curacao Hato
Region Caribbean Netherlands, Aruba, Curaçao, Sint Maarten
Timezone Unknown (UTC+0.0)
Stats Elevation 29 ft / 9 m (AMSL)
Location 12.188853° -68.959803°
Runways 1
Magnetic Variation 11.331° W

METAR

TNCC 131700Z 09011KT 9999 FEW030 30/22 Q1014 NOSIG

Decode

TAF

Not found

Departure Runways

ID Width Length Bearing (true) Bearing (mag) Surface Threshold Offset Overrun Length
11 197 ft / 60 m 11,197 ft / 3,413 m 102.24° 113.57° Asphalt 300 ft / 91 m 0 ft / 0 m
29 197 ft / 60 m 11,197 ft / 3,413 m 282.24° 293.57° Asphalt 300 ft / 91 m 200 ft / 61 m

TIST

Details ICAO TIST (STT)
Name St Thomas - Cyril E King
Region USA (U.S. Virgin Islands)
Timezone Unknown (UTC+0.0)
Stats Elevation 23 ft / 7 m (AMSL)
Location 18.337300° -64.973344°
Runways 1
Magnetic Variation 13.636° W

METAR

TIST 131653Z AUTO 18005KT 10SM SCT049 29/24 A3000

Decode

TAF

TAF TIST 131140Z 1312/1412 15008KT P6SM VCSH SCT025 FM131400 18010KT P6SM FEW025 FEW050 FM132300 VRB05KT P6SM SCT025

Decode

Destination Runways

ID Width Length Bearing (true) Bearing (mag) Surface Threshold Offset Overrun Length
10 151 ft / 46 m 6,992 ft / 2,131 m 87.44° 101.08° Asphalt 0 ft / 0 m 200 ft / 61 m
28 151 ft / 46 m 6,992 ft / 2,131 m 267.44° 281.08° Asphalt 2,300 ft / 701 m 200 ft / 61 m

Approach Navaids

Runway Type Ident Frequency Range Bearing (true) Bearing (mag) Slope Elevation
10 Localiser ITMN 110.10 MHz 18 nm / 33 km 87.45° 101.09° - 15 ft / 5 m (AMSL)
10 Glidescope ITMN 110.10 MHz 10 nm / 19 km 87.44° 101.08° 3.00° 18 ft / 5 m (AMSL)
10 DME ITMN 110.10 MHz 18 nm / 33 km - - - 22 ft / 7 m (AMSL)